Anama, Brazil
Current Conditions -  °F | °C
As of 4:00 PM on Sunday 21 Dec 2014 (Local Time) from SBEG Reporting Station
Rain Showers Rain Showers  
Wind Chill: 84°   Ceiling: Unl
Heat Index: 91°   Visibility: 6mi
Dew Point: 73°   Wind: 3mph
Humidity: 70%   Direction: 30°NNE
Pressure: 29.77"   Gusts: NA
Location:  3.58°S, 61.4°W
Report Text: SBEG 212000Z 03003KT 9999 VCSH SCT020 FEW025TCU 29/23 Q1008
Loading
Personal Weather Stations






























Interactive Weather Map New forecast layout! Learn more

10-Day Weather Forecast

Advertisements
Track Severe Weather on mobile